Time;durP1;ratioP1;P1;durP2;ratioP2;P2;SDS_P1;SDS_P2;PMS_P1;PMS_P2;Temp;Humidity;BMP_temperature;BMP_pressure;BME280_temperature;BME280_humidity;BME280_pressure;Samples;Min_cycle;Max_cycle;Signal;HPM_P1;HPM_P2
2022/07/20 00:01:31;;;;;;;6.80;2.58;;;;;;;22.90;43.44;98685.25;4992725;28;20034;-70
2022/07/20 00:03:56;;;;;;;9.10;2.80;;;;;;;22.90;43.40;98685.25;4995814;28;20113;-69
2022/07/20 00:06:21;;;;;;;4.03;2.80;;;;;;;22.72;43.69;98664.69;4986397;28;20038;-69
2022/07/20 00:11:30;;;;;;;3.92;2.72;;;;;;;23.00;43.66;98672.50;4988832;28;20084;-69
2022/07/20 00:13:58;;;;;;;7.72;3.00;;;;;;;22.79;43.88;98669.88;4990117;28;20446;-69
2022/07/20 00:16:26;;;;;;;6.53;2.83;;;;;;;22.71;44.18;98685.09;4988562;28;20023;-70
2022/07/20 00:18:51;;;;;;;7.00;2.60;;;;;;;22.65;44.71;98686.25;4985908;28;20022;-70
2022/07/20 00:21:17;;;;;;;7.15;2.78;;;;;;;22.62;44.73;98683.25;4993063;28;20034;-69
2022/07/20 00:23:42;;;;;;;8.63;3.28;;;;;;;22.47;44.65;98665.66;4994165;28;20299;-70
2022/07/20 00:26:08;;;;;;;9.98;3.08;;;;;;;22.45;45.18;98689.97;4999375;28;20125;-68
2022/07/20 00:28:34;;;;;;;5.03;2.83;;;;;;;22.27;45.22;98668.56;4989150;28;20034;-68
2022/07/20 00:30:59;;;;;;;5.60;2.78;;;;;;;22.26;45.27;98684.25;4988272;28;20026;-69
2022/07/20 00:33:25;;;;;;;5.50;2.95;;;;;;;22.24;45.48;98669.09;4987490;28;20023;-71
2022/07/20 00:35:50;;;;;;;7.60;2.80;;;;;;;22.23;45.56;98671.03;4986493;28;20037;-69
2022/07/20 00:38:15;;;;;;;7.38;3.30;;;;;;;22.19;45.09;98655.34;4990221;28;20460;-69
2022/07/20 00:40:41;;;;;;;6.38;3.35;;;;;;;22.29;45.24;98669.88;4989834;28;20029;-69
2022/07/20 00:43:06;;;;;;;8.77;3.00;;;;;;;22.32;45.00;98660.22;4989008;28;20030;-70
2022/07/20 00:45:32;;;;;;;6.93;2.80;;;;;;;22.26;45.61;98661.38;4988967;28;20026;-72
2022/07/20 00:47:57;;;;;;;7.47;2.90;;;;;;;22.31;45.50;98661.34;4989432;28;20029;-70
2022/07/20 00:50:23;;;;;;;9.10;2.78;;;;;;;22.25;45.42;98660.56;4990069;28;20116;-70
2022/07/20 00:52:48;;;;;;;6.00;2.78;;;;;;;22.23;45.72;98654.50;4984468;28;20026;-70
2022/07/20 00:55:14;;;;;;;6.13;2.63;;;;;;;22.12;45.76;98663.06;4979333;28;20401;-68
2022/07/20 00:57:39;;;;;;;5.32;3.22;;;;;;;22.24;45.48;98658.06;4987891;28;20026;-70
2022/07/20 01:00:09;;;;;;;3.25;2.63;;;;;;;22.00;47.46;98639.41;4988094;28;20053;-71
2022/07/20 01:02:34;;;;;;;4.43;2.70;;;;;;;21.76;48.88;98669.53;4991573;28;20476;-71
2022/07/20 01:05:00;;;;;;;7.82;3.20;;;;;;;21.35;50.86;98671.50;4989042;28;20041;-70
2022/07/20 01:07:25;;;;;;;7.32;3.38;;;;;;;20.96;52.03;98672.09;4980998;28;20592;-70
2022/07/20 01:09:51;;;;;;;6.43;2.80;;;;;;;20.70;52.75;98669.31;4988243;28;20026;-70
2022/07/20 01:12:16;;;;;;;6.72;3.45;;;;;;;20.58;52.93;98658.56;4986670;28;20031;-70
2022/07/20 01:14:42;;;;;;;7.40;3.05;;;;;;;20.56;52.29;98660.75;4985048;28;20029;-70
2022/07/20 01:17:07;;;;;;;7.35;2.83;;;;;;;20.70;51.34;98668.50;4987812;28;20393;-70
2022/07/20 01:19:33;;;;;;;8.15;3.05;;;;;;;20.72;50.92;98661.63;4985389;28;20058;-70
2022/07/20 01:21:58;;;;;;;8.30;3.28;;;;;;;20.75;50.86;98658.31;4987915;28;20109;-70
2022/07/20 01:24:23;;;;;;;5.65;2.92;;;;;;;20.64;50.67;98637.41;4983661;28;20034;-69
2022/07/20 01:26:49;;;;;;;6.55;3.00;;;;;;;20.89;50.74;98664.09;4985975;28;20089;-70
2022/07/20 01:29:14;;;;;;;6.78;3.38;;;;;;;20.84;51.36;98664.09;4985669;28;20034;-70
2022/07/20 01:31:40;;;;;;;10.27;3.30;;;;;;;20.81;51.48;98661.09;4991262;28;20031;-70
2022/07/20 01:34:06;;;;;;;5.78;2.80;;;;;;;20.59;50.98;98642.88;4990773;28;20026;-69
2022/07/20 01:36:32;;;;;;;10.73;2.97;;;;;;;20.74;50.75;98656.66;4982784;28;20033;-69
2022/07/20 01:38:57;;;;;;;9.30;2.83;;;;;;;21.04;49.71;98665.19;4988134;28;20033;-70
2022/07/20 01:41:24;;;;;;;8.98;2.95;;;;;;;20.95;50.07;98671.25;4991265;28;20030;-70
2022/07/20 01:43:50;;;;;;;7.82;3.20;;;;;;;20.88;50.50;98669.88;4988279;28;20488;-69
2022/07/20 01:46:16;;;;;;;9.43;2.92;;;;;;;20.72;50.83;98658.03;4990312;28;20105;-70
2022/07/20 01:48:41;;;;;;;4.78;3.17;;;;;;;20.91;50.75;98683.09;4986689;28;20026;-70
2022/07/20 01:51:07;;;;;;;6.47;3.22;;;;;;;20.86;50.62;98672.09;4990771;28;20027;-69
2022/07/20 01:53:32;;;;;;;4.57;2.80;;;;;;;20.91;49.80;98669.34;5011170;28;20029;-69
2022/07/20 01:55:57;;;;;;;4.60;2.92;;;;;;;20.99;50.15;98669.59;5008151;28;20034;-69
2022/07/20 01:58:23;;;;;;;5.95;2.63;;;;;;;21.03;50.19;98675.38;5007539;28;20030;-69
2022/07/20 02:00:49;;;;;;;6.30;2.95;;;;;;;21.06;50.07;98676.75;5011082;28;20049;-69
2022/07/20 02:03:15;;;;;;;6.90;3.33;;;;;;;21.02;50.21;98671.00;5005165;28;20030;-70
2022/07/20 02:05:41;;;;;;;4.78;2.83;;;;;;;20.97;50.52;98670.97;4985618;28;20141;-70
2022/07/20 02:08:07;;;;;;;4.50;2.58;;;;;;;20.96;49.88;98650.91;4987868;28;20872;-68
2022/07/20 02:10:33;;;;;;;7.18;3.10;;;;;;;21.18;50.32;98677.31;4989939;28;20072;-70
2022/07/20 02:12:58;;;;;;;7.50;2.83;;;;;;;21.25;49.87;98664.09;4991625;28;20431;-70
2022/07/20 02:18:09;;;;;;;9.93;2.83;;;;;;;20.95;51.21;98664.91;5015958;23;20088;-68
2022/07/20 02:20:35;;;;;;;5.78;3.28;;;;;;;20.83;51.62;98673.47;5009460;28;20030;-68
2022/07/20 02:23:02;;;;;;;8.25;3.05;;;;;;;20.70;51.91;98676.75;5015977;28;20026;-69
2022/07/20 02:25:28;;;;;;;8.20;2.95;;;;;;;20.59;52.03;98664.88;5013631;28;20026;-68
2022/07/20 02:27:53;;;;;;;5.68;3.00;;;;;;;20.62;53.25;98675.34;5014654;28;20417;-70
2022/07/20 02:30:19;;;;;;;7.45;2.95;;;;;;;20.72;53.79;98677.28;4999121;28;20030;-68
2022/07/20 02:32:44;;;;;;;9.25;2.97;;;;;;;20.59;55.10;98681.38;5007876;28;20525;-69
2022/07/20 02:35:09;;;;;;;4.63;2.90;;;;;;;20.48;55.89;98676.94;5013060;28;20030;-69
2022/07/20 02:37:35;;;;;;;6.20;3.47;;;;;;;20.34;56.45;98679.38;4999245;28;20109;-71
2022/07/20 02:40:00;;;;;;;3.78;2.55;;;;;;;20.28;57.27;98667.53;4996130;28;20042;-69
2022/07/20 02:42:25;;;;;;;5.68;3.20;;;;;;;20.09;57.62;98671.84;4999436;28;20057;-69
2022/07/20 02:44:51;;;;;;;5.20;3.17;;;;;;;19.86;58.64;98676.72;4992379;28;20057;-69
2022/07/20 02:47:16;;;;;;;6.72;3.40;;;;;;;19.62;59.99;98684.53;4998340;28;20034;-69
2022/07/20 02:49:41;;;;;;;5.10;3.30;;;;;;;19.61;60.84;98682.03;5003031;28;20026;-69
2022/07/20 02:52:06;;;;;;;6.53;3.35;;;;;;;19.45;61.79;98672.88;5015811;28;20036;-70
2022/07/20 02:54:32;;;;;;;6.57;3.08;;;;;;;19.33;63.57;98678.53;5002611;28;20019;-69
2022/07/20 02:56:57;;;;;;;9.82;3.15;;;;;;;19.22;64.58;98671.34;4987057;28;20050;-69
2022/07/20 02:59:22;;;;;;;6.75;3.67;;;;;;;19.07;64.96;98682.19;4998329;28;20046;-68
2022/07/20 03:01:47;;;;;;;7.60;3.03;;;;;;;18.93;65.30;98687.28;4997167;28;20030;-71
2022/07/20 03:04:13;;;;;;;9.65;4.05;;;;;;;18.88;65.46;98682.56;5012671;28;20033;-69
2022/07/20 03:06:38;;;;;;;8.68;3.88;;;;;;;18.83;65.50;98675.13;5017633;28;20030;-69
2022/07/20 03:09:04;;;;;;;10.68;3.72;;;;;;;18.81;65.59;98657.28;5011557;28;20024;-69
2022/07/20 03:11:29;;;;;;;9.98;3.85;;;;;;;19.10;64.84;98673.44;5011095;28;20034;-70
2022/07/20 03:13:54;;;;;;;8.70;4.13;;;;;;;19.01;64.87;98668.44;5003801;28;20027;-69
2022/07/20 03:16:19;;;;;;;14.60;4.95;;;;;;;18.85;66.28;98666.66;5004872;28;20040;-69
2022/07/20 03:18:45;;;;;;;7.57;4.55;;;;;;;18.76;67.38;98674.53;5000980;28;20029;-68
2022/07/20 03:21:10;;;;;;;7.88;3.60;;;;;;;18.75;67.68;98669.28;5021297;28;20034;-69
2022/07/20 03:23:36;;;;;;;10.15;4.00;;;;;;;18.56;67.50;98655.94;5001377;28;20896;-68
2022/07/20 03:26:01;;;;;;;6.97;3.58;;;;;;;18.55;69.30;98665.25;5008961;28;20079;-70
2022/07/20 03:28:27;;;;;;;8.15;3.58;;;;;;;18.48;69.33;98678.31;5010415;28;20061;-69
2022/07/20 03:30:52;;;;;;;7.10;3.35;;;;;;;18.41;69.88;98669.47;5010001;28;20030;-69
2022/07/20 03:33:17;;;;;;;7.13;3.35;;;;;;;18.34;70.81;98679.81;5008516;28;20034;-69
2022/07/20 03:35:42;;;;;;;10.18;3.53;;;;;;;18.30;70.91;98684.16;5002208;28;20061;-69
2022/07/20 03:38:08;;;;;;;10.38;3.45;;;;;;;18.22;71.24;98684.59;4987488;28;20101;-68
2022/07/20 03:40:33;;;;;;;7.07;3.17;;;;;;;18.13;72.47;98689.69;4993210;28;20038;-69
2022/07/20 03:42:58;;;;;;;5.97;3.38;;;;;;;18.05;72.86;98688.25;4994162;28;20026;-69
2022/07/20 03:45:24;;;;;;;11.88;3.78;;;;;;;18.04;72.82;98692.06;5001161;28;20045;-69
2022/07/20 03:47:49;;;;;;;10.93;3.58;;;;;;;18.10;72.03;98693.78;4991483;28;20492;-69
2022/07/20 03:50:14;;;;;;;6.05;3.35;;;;;;;18.03;72.01;98679.47;4991842;28;20026;-69
2022/07/20 03:52:39;;;;;;;7.75;3.60;;;;;;;18.08;73.99;98704.16;4988798;28;20042;-70
2022/07/20 03:55:05;;;;;;;7.60;3.38;;;;;;;18.04;73.82;98694.78;5005903;28;20034;-70
2022/07/20 03:57:30;;;;;;;6.40;3.08;;;;;;;18.04;73.44;98699.44;5005878;28;20491;-70
2022/07/20 03:59:56;;;;;;;9.32;3.92;;;;;;;18.04;71.92;98691.22;5008045;28;20022;-70
2022/07/20 04:02:21;;;;;;;13.25;3.55;;;;;;;18.03;71.55;98690.41;4993321;28;20030;-70
2022/07/20 04:04:46;;;;;;;6.97;3.55;;;;;;;18.04;70.96;98677.53;4991511;28;20149;-71
2022/07/20 04:07:12;;;;;;;7.72;3.63;;;;;;;18.17;70.68;98688.09;4995430;28;20034;-66
2022/07/20 04:09:49;;;;;;;7.70;3.42;;;;;;;18.25;70.36;98686.84;4979371;28;20138;-65
2022/07/20 04:12:18;;;;;;;8.25;3.28;;;;;;;18.31;69.42;98680.31;4985231;28;20022;-66
2022/07/20 04:14:44;;;;;;;5.97;3.10;;;;;;;18.30;69.14;98662.25;5003596;28;20038;-65
2022/07/20 04:17:09;;;;;;;8.52;3.75;;;;;;;18.51;70.09;98682.47;4983902;28;20045;-66
2022/07/20 04:19:36;;;;;;;7.60;3.60;;;;;;;18.65;72.44;98685.59;4982404;28;20026;-65
2022/07/20 04:22:02;;;;;;;7.57;3.40;;;;;;;18.74;73.11;98686.81;4985875;28;20049;-65
2022/07/20 04:24:27;;;;;;;10.48;3.75;;;;;;;18.77;72.33;98678.91;5009072;28;20101;-65
2022/07/20 04:26:53;;;;;;;11.32;4.50;;;;;;;18.74;73.20;98679.41;4995117;28;20034;-65
2022/07/20 04:29:19;;;;;;;48.10;6.20;;;;;;;18.85;72.76;98674.88;4991009;28;20527;-65
2022/07/20 04:31:44;;;;;;;16.05;4.53;;;;;;;18.90;72.51;98682.31;5000045;28;20384;-65
2022/07/20 04:34:10;;;;;;;9.13;4.10;;;;;;;19.02;71.75;98691.19;4991616;28;20034;-64
2022/07/20 04:36:35;;;;;;;11.60;3.60;;;;;;;19.10;70.49;98693.47;4991219;28;20447;-66
2022/07/20 04:39:01;;;;;;;11.10;4.00;;;;;;;19.11;67.94;98697.03;4996863;28;20080;-67
2022/07/20 04:41:27;;;;;;;11.82;3.55;;;;;;;19.08;69.57;98700.31;4983171;28;20022;-67
2022/07/20 04:43:52;;;;;;;6.57;4.22;;;;;;;19.07;69.25;98698.63;4986550;28;20026;-66
2022/07/20 04:46:17;;;;;;;5.07;2.88;;;;;;;19.12;68.17;98694.00;4996015;28;20396;-67
2022/07/20 04:48:42;;;;;;;9.80;3.42;;;;;;;19.17;68.96;98702.28;4994776;28;20022;-66
2022/07/20 04:51:08;;;;;;;10.20;3.28;;;;;;;19.19;68.30;98693.81;4993041;28;20041;-66
2022/07/20 04:53:34;;;;;;;9.15;3.63;;;;;;;19.26;70.17;98702.66;4988236;28;20022;-66
2022/07/20 04:55:59;;;;;;;9.05;4.45;;;;;;;19.29;72.79;98695.81;4986417;28;20514;-64
2022/07/20 04:58:24;;;;;;;10.60;4.32;;;;;;;19.40;71.09;98698.34;4984289;28;20041;-67
2022/07/20 05:00:49;;;;;;;6.18;4.00;;;;;;;19.56;69.46;98699.28;4993002;28;20039;-65
2022/07/20 05:03:15;;;;;;;8.60;3.75;;;;;;;19.72;68.20;98696.66;4995587;28;20038;-64
2022/07/20 05:05:40;;;;;;;7.10;3.30;;;;;;;19.86;67.38;98695.94;4988488;28;20048;-64
2022/07/20 05:08:05;;;;;;;8.68;3.72;;;;;;;20.08;68.00;98692.19;4992758;28;20029;-65
2022/07/20 05:10:31;;;;;;;9.52;4.10;;;;;;;20.27;67.67;98692.53;4990687;28;20025;-64
2022/07/20 05:12:56;;;;;;;9.35;4.10;;;;;;;20.50;66.46;98697.53;4982624;28;20412;-64
2022/07/20 05:15:23;;;;;;;8.30;3.55;;;;;;;20.70;64.91;98688.56;4997308;28;20134;-63
2022/07/20 05:17:49;;;;;;;7.95;3.60;;;;;;;20.93;62.14;98689.13;4982684;28;20030;-66
2022/07/20 05:20:14;;;;;;;9.40;3.63;;;;;;;21.15;61.28;98686.13;4999206;28;20153;-64
2022/07/20 05:22:40;;;;;;;6.00;3.38;;;;;;;21.37;60.96;98686.63;4989417;28;20121;-65
2022/07/20 05:25:05;;;;;;;7.80;3.80;;;;;;;21.55;60.66;98679.75;4990006;28;20440;-66
2022/07/20 05:27:31;;;;;;;8.50;3.58;;;;;;;21.73;60.65;98683.03;4987226;28;20022;-65
2022/07/20 05:29:56;;;;;;;8.35;4.25;;;;;;;21.96;59.53;98681.59;4987007;28;20066;-65
2022/07/20 05:32:21;;;;;;;17.35;4.15;;;;;;;22.05;60.78;98686.22;4984415;28;20065;-64
2022/07/20 05:34:46;;;;;;;9.98;3.75;;;;;;;22.21;60.06;98687.00;4985514;28;20050;-64
2022/07/20 05:37:12;;;;;;;8.30;3.67;;;;;;;22.40;59.96;98695.50;4980930;28;20033;-68
2022/07/20 05:39:37;;;;;;;7.25;3.72;;;;;;;22.56;59.34;98692.63;5007517;28;20076;-68
2022/07/20 05:42:03;;;;;;;8.65;3.53;;;;;;;22.77;58.00;98685.91;4994964;28;20025;-70
2022/07/20 05:44:29;;;;;;;4.00;2.78;;;;;;;23.06;56.10;98687.94;4983903;28;20507;-70
2022/07/20 05:46:54;;;;;;;9.32;3.05;;;;;;;23.24;54.90;98684.47;4991397;28;20050;-68
2022/07/20 05:49:19;;;;;;;4.93;2.88;;;;;;;23.53;52.99;98698.28;4990306;28;20038;-67
2022/07/20 05:51:45;;;;;;;7.78;3.70;;;;;;;23.77;51.59;98697.50;4984187;28;20022;-66
2022/07/20 05:54:10;;;;;;;4.82;2.80;;;;;;;23.96;50.38;98689.28;4994599;28;20472;-70
2022/07/20 05:56:35;;;;;;;5.78;3.20;;;;;;;24.28;48.81;98697.72;5001670;28;20026;-70
2022/07/20 05:59:01;;;;;;;3.80;2.80;;;;;;;24.47;48.93;98695.03;4993589;28;20484;-69
2022/07/20 06:01:26;;;;;;;9.43;3.38;;;;;;;24.55;47.76;98693.56;4994442;28;20052;-69
2022/07/20 06:03:51;;;;;;;7.72;2.90;;;;;;;24.87;46.52;98703.06;4991027;28;20037;-70
2022/07/20 06:06:17;;;;;;;7.38;2.78;;;;;;;25.18;46.16;98703.44;4996132;28;20049;-69
2022/07/20 06:08:42;;;;;;;11.30;2.92;;;;;;;25.45;45.57;98708.22;4983135;28;20020;-67
2022/07/20 06:11:08;;;;;;;12.55;2.97;;;;;;;25.36;46.67;98704.47;4997725;28;20405;-69
2022/07/20 06:13:34;;;;;;;7.72;3.20;;;;;;;25.67;46.10;98701.19;4988746;28;20383;-67
2022/07/20 06:15:59;;;;;;;8.05;3.17;;;;;;;25.67;46.56;98709.50;4983486;28;20037;-69
2022/07/20 06:18:24;;;;;;;13.05;3.40;;;;;;;25.75;46.61;98712.41;4993453;28;20483;-68
2022/07/20 06:20:49;;;;;;;15.23;3.40;;;;;;;25.58;47.35;98715.75;4992308;28;20022;-68
2022/07/20 06:23:15;;;;;;;9.15;3.35;;;;;;;25.67;46.84;98720.56;5004504;28;20543;-68
2022/07/20 06:25:40;;;;;;;5.55;2.92;;;;;;;25.86;47.54;98715.84;4988270;28;20068;-75
2022/07/20 06:28:07;;;;;;;10.43;3.30;;;;;;;26.19;46.93;98733.19;4997440;28;20027;-73
2022/07/20 06:30:32;;;;;;;13.93;3.03;;;;;;;26.48;46.52;98718.16;4989698;28;20117;-72
2022/07/20 06:32:58;;;;;;;9.60;2.90;;;;;;;26.80;45.97;98735.81;4999916;28;20025;-73
2022/07/20 06:35:23;;;;;;;7.47;2.92;;;;;;;27.24;45.19;98734.28;4986420;28;20038;-76
2022/07/20 06:37:49;;;;;;;9.02;2.90;;;;;;;27.54;44.37;98732.69;5012166;28;20085;-73
2022/07/20 06:40:15;;;;;;;8.32;2.60;;;;;;;28.10;43.26;98742.34;4991017;28;20476;-77
2022/07/20 06:42:40;;;;;;;9.10;2.90;;;;;;;28.68;41.29;98732.06;4996911;28;20050;-74
2022/07/20 06:45:06;;;;;;;16.80;3.17;;;;;;;28.93;40.71;98727.69;4993010;28;20026;-76
2022/07/20 06:47:31;;;;;;;28.02;3.40;;;;;;;29.66;38.52;98729.81;5000208;28;20628;-75
2022/07/20 06:49:57;;;;;;;14.45;2.88;;;;;;;30.21;37.73;98720.59;5011670;28;20026;-81
2022/07/20 06:52:22;;;;;;;14.82;3.10;;;;;;;30.72;37.05;98729.84;5016859;28;20026;-81
2022/07/20 06:54:47;;;;;;;21.25;3.63;;;;;;;31.37;35.84;98738.75;5010380;28;20038;-80
2022/07/20 06:57:14;;;;;;;8.10;2.38;;;;;;;33.59;32.93;98734.00;5008699;28;20061;-72
2022/07/20 06:59:39;;;;;;;13.43;2.90;;;;;;;34.93;31.16;98736.19;4985861;28;20061;-72
2022/07/20 07:02:05;;;;;;;8.27;3.03;;;;;;;36.26;28.71;98725.56;4984091;28;20022;-71
2022/07/20 07:04:31;;;;;;;13.77;2.35;;;;;;;36.18;27.91;98724.63;4992942;28;20034;-71
2022/07/20 07:06:58;;;;;;;6.60;2.53;;;;;;;36.84;27.01;98731.72;4980653;28;20059;-71
2022/07/20 07:09:23;;;;;;;7.65;2.22;;;;;;;37.34;26.48;98734.44;4978537;28;20065;-70
2022/07/20 07:11:48;;;;;;;4.32;2.05;;;;;;;38.10;25.38;98725.63;4991642;28;20046;-70
2022/07/20 07:14:14;;;;;;;10.05;2.42;;;;;;;38.36;24.91;98733.09;4982604;28;20034;-68
2022/07/20 07:16:39;;;;;;;6.32;2.47;;;;;;;38.98;24.35;98735.16;4992549;28;20120;-71
2022/07/20 07:19:04;;;;;;;8.63;2.85;;;;;;;38.37;24.61;98745.22;4984578;28;20026;-67
2022/07/20 07:21:30;;;;;;;8.65;2.60;;;;;;;39.07;24.03;98737.66;4982283;28;20400;-66
2022/07/20 07:23:55;;;;;;;5.60;1.98;;;;;;;39.63;23.56;98735.47;4989076;28;20034;-67
2022/07/20 07:26:21;;;;;;;5.85;2.22;;;;;;;39.48;23.50;98733.81;4978784;28;20033;-67
2022/07/20 07:28:47;;;;;;;4.72;2.45;;;;;;;38.64;24.31;98730.88;4983832;28;20030;-67
2022/07/20 07:31:12;;;;;;;8.95;2.63;;;;;;;38.76;24.61;98733.41;4988938;28;20096;-71
2022/07/20 07:33:38;;;;;;;4.35;2.50;;;;;;;38.86;23.73;98727.00;4991728;28;20078;-72
2022/07/20 07:36:04;;;;;;;5.35;2.50;;;;;;;38.64;23.91;98725.25;4987455;28;20027;-71
2022/07/20 07:38:29;;;;;;;5.57;2.15;;;;;;;38.78;23.98;98731.00;4982198;28;20029;-70
2022/07/20 07:40:55;;;;;;;3.75;2.33;;;;;;;38.38;24.21;98732.69;4983355;28;20022;-70
2022/07/20 07:43:20;;;;;;;3.53;2.05;;;;;;;39.40;23.54;98728.09;4990029;28;20046;-74
2022/07/20 07:45:46;;;;;;;5.40;2.47;;;;;;;40.13;23.02;98715.72;4990341;28;20049;-70
2022/07/20 07:48:11;;;;;;;6.05;2.47;;;;;;;40.20;22.86;98723.44;4984932;28;20285;-69
2022/07/20 07:50:41;;;;;;;6.75;2.40;;;;;;;39.57;23.58;98708.75;4982202;28;20030;-75
2022/07/20 07:53:10;;;;;;;4.60;2.05;;;;;;;39.70;23.46;98718.50;4990288;28;20326;-73
2022/07/20 07:55:40;;;;;;;4.32;2.45;;;;;;;40.74;22.32;98713.72;4994731;28;20387;-71
2022/07/20 07:58:07;;;;;;;5.70;2.67;;;;;;;41.47;21.28;98709.41;4992123;28;20026;-75
2022/07/20 08:00:33;;;;;;;7.45;2.88;;;;;;;40.93;21.78;98706.78;5004571;28;20073;-70
2022/07/20 08:02:59;;;;;;;7.55;2.92;;;;;;;40.90;21.68;98701.94;4992073;28;20031;-72
2022/07/20 08:05:24;;;;;;;6.57;3.10;;;;;;;42.01;20.52;98704.22;4990117;28;20084;-72
2022/07/20 08:07:49;;;;;;;5.20;2.72;;;;;;;42.11;20.24;98718.78;4991455;28;20022;-70
2022/07/20 08:10:15;;;;;;;4.97;2.70;;;;;;;42.54;20.55;98704.22;4986815;28;20030;-68
2022/07/20 08:12:42;;;;;;;5.53;2.65;;;;;;;42.04;20.74;98697.72;4999537;28;20031;-74
2022/07/20 08:15:08;;;;;;;4.57;2.75;;;;;;;43.46;19.33;98710.09;4989001;28;20030;-75
2022/07/20 08:17:33;;;;;;;6.88;2.72;;;;;;;42.32;20.12;98710.06;4992782;28;20111;-68
2022/07/20 08:19:59;;;;;;;6.53;2.63;;;;;;;43.35;19.75;98713.09;5013145;23;20043;-55
2022/07/20 08:22:24;;;;;;;6.43;2.40;;;;;;;43.37;19.89;98706.97;4991289;28;20477;-56
2022/07/20 08:24:51;;;;;;;9.02;3.20;;;;;;;44.78;18.68;98718.63;4990222;28;20038;-57
2022/07/20 08:27:16;;;;;;;5.15;2.95;;;;;;;44.34;19.22;98714.91;4987423;28;20484;-56
2022/07/20 08:29:42;;;;;;;5.60;2.60;;;;;;;44.18;18.69;98710.69;4991987;28;20030;-56
2022/07/20 08:32:07;;;;;;;4.07;2.45;;;;;;;44.44;18.95;98719.63;4988944;28;20041;-58
2022/07/20 08:34:33;;;;;;;6.72;2.80;;;;;;;43.89;19.39;98713.16;4983177;28;20173;-57
2022/07/20 08:36:58;;;;;;;4.70;2.40;;;;;;;43.51;19.97;98709.59;4987934;28;20052;-56
2022/07/20 08:39:25;;;;;;;3.38;2.58;;;;;;;42.94;19.89;98713.97;4988757;28;20469;-57
2022/07/20 08:41:51;;;;;;;4.00;2.60;;;;;;;44.46;19.61;98714.28;4991290;28;20133;-56
2022/07/20 08:44:16;;;;;;;3.80;2.65;;;;;;;45.00;18.36;98716.16;4990678;28;20576;-56
2022/07/20 08:46:43;;;;;;;6.70;3.15;;;;;;;42.24;20.64;98714.22;4988940;28;20030;-56
2022/07/20 08:49:09;;;;;;;9.23;3.08;;;;;;;43.20;19.80;98706.75;4986352;28;20026;-57
2022/07/20 08:51:35;;;;;;;10.50;2.95;;;;;;;42.50;20.50;98709.13;4983531;28;20029;-56
2022/07/20 08:54:01;;;;;;;4.70;2.75;;;;;;;42.76;20.09;98714.19;4991302;28;20393;-57
2022/07/20 08:56:27;;;;;;;4.38;2.72;;;;;;;43.81;19.74;98710.81;4984390;28;20478;-56
2022/07/20 08:58:52;;;;;;;4.05;2.70;;;;;;;44.25;18.96;98720.34;4984732;28;20102;-57
2022/07/20 09:01:18;;;;;;;6.30;2.67;;;;;;;44.38;19.48;98715.66;4987819;28;20030;-56
2022/07/20 09:04:02;;;;;;;5.65;3.10;;;;;;;44.50;19.05;98723.59;4984602;28;20031;-56
2022/07/20 09:06:29;;;;;;;9.13;2.60;;;;;;;44.87;18.90;98715.19;4987063;28;20394;-56
2022/07/20 09:09:06;;;;;;;6.60;2.88;;;;;;;46.07;17.72;98710.19;4983459;28;20026;-56
2022/07/20 09:11:33;;;;;;;5.88;3.20;;;;;;;45.31;18.27;98713.91;4983685;28;20033;-56
2022/07/20 09:14:00;;;;;;;5.55;3.13;;;;;;;46.77;17.37;98718.19;4989438;28;20019;-56
2022/07/20 09:16:47;;;;;;;6.28;3.40;;;;;;;46.39;17.39;98714.28;4984588;28;20081;-55
2022/07/20 09:19:17;;;;;;;6.00;2.90;;;;;;;46.00;17.63;98716.06;4982633;28;20034;-56
2022/07/20 09:21:42;;;;;;;7.03;3.25;;;;;;;44.60;18.73;98716.88;5004068;28;20030;-56
2022/07/20 09:24:09;;;;;;;4.60;2.78;;;;;;;44.62;18.21;98725.81;4988325;28;20030;-56
2022/07/20 09:26:36;;;;;;;5.55;2.83;;;;;;;45.32;17.44;98726.94;4989198;28;20038;-55
2022/07/20 09:29:05;;;;;;;4.18;2.65;;;;;;;44.96;17.56;98724.81;4982814;28;20037;-55
2022/07/20 09:31:34;;;;;;;7.25;3.40;;;;;;;45.79;17.60;98715.28;4985039;28;20045;-56
2022/07/20 09:34:07;;;;;;;8.90;3.53;;;;;;;47.13;17.69;98702.84;5003629;28;20027;-56
2022/07/20 09:36:35;;;;;;;7.80;3.03;;;;;;;47.37;16.64;98705.44;4987304;28;20044;-56
2022/07/20 09:39:16;;;;;;;;;;;;;;;48.06;16.44;98707.81;5004301;28;20030;-56
2022/07/20 09:41:44;;;;;;;8.68;2.83;;;;;;;47.60;17.05;98722.34;4988838;28;19913;-56
2022/07/20 09:44:20;;;;;;;6.68;3.10;;;;;;;47.71;16.18;98722.00;4992958;28;20026;-56
2022/07/20 09:46:46;;;;;;;12.13;2.97;;;;;;;45.30;18.38;98732.28;4986017;28;20113;-56
2022/07/20 09:49:11;;;;;;;5.47;2.65;;;;;;;46.27;17.07;98724.38;4987141;28;20116;-56
2022/07/20 09:51:45;;;;;;;7.53;2.75;;;;;;;46.18;17.16;98722.13;4985475;28;20065;-56
2022/07/20 09:54:13;;;;;;;4.35;2.60;;;;;;;46.19;17.47;98720.88;4988493;28;20026;-56
2022/07/20 09:56:42;;;;;;;5.60;2.92;;;;;;;45.81;17.23;98721.38;4990570;28;20030;-56
2022/07/20 09:59:13;;;;;;;7.15;2.80;;;;;;;46.08;17.76;98724.00;4989650;28;20030;-56
2022/07/20 10:01:41;;;;;;;8.43;2.83;;;;;;;46.26;18.10;98717.03;4993337;28;20133;-57
2022/07/20 10:04:09;;;;;;;8.43;3.00;;;;;;;46.56;17.29;98718.72;4988989;28;20023;-57
2022/07/20 10:06:37;;;;;;;6.65;3.10;;;;;;;45.87;18.24;98711.00;4988475;28;20033;-57
2022/07/20 10:09:04;;;;;;;5.70;3.00;;;;;;;46.80;17.63;98704.19;4989407;28;20081;-57
2022/07/20 10:11:30;;;;;;;7.13;2.80;;;;;;;40.17;22.21;98696.72;4991344;28;20494;-57
2022/07/20 10:13:58;;;;;;;9.48;3.15;;;;;;;41.47;21.73;98694.41;4988540;28;20049;-57
2022/07/20 10:16:31;;;;;;;6.03;3.28;;;;;;;44.54;19.16;98698.66;4987602;28;20030;-57
2022/07/20 10:18:58;;;;;;;9.43;3.20;;;;;;;44.77;19.22;98705.59;4991488;28;20034;-57
2022/07/20 10:21:43;;;;;;;5.05;2.70;;;;;;;45.68;18.40;98701.25;5003943;28;20037;-57
2022/07/20 10:24:30;;;;;;;4.55;2.78;;;;;;;45.94;18.23;98694.97;4996320;28;20121;-57
2022/07/20 10:27:08;;;;;;;5.60;3.33;;;;;;;46.25;17.69;98695.41;4980962;28;20474;-57
2022/07/20 10:29:39;;;;;;;4.43;2.92;;;;;;;45.99;18.10;98685.88;4982325;28;20041;-56
2022/07/20 10:32:11;;;;;;;6.18;2.90;;;;;;;46.27;18.04;98690.88;4988136;28;20113;-56
2022/07/20 10:34:44;;;;;;;5.28;2.92;;;;;;;46.42;18.25;98693.38;4990572;28;20029;-57
2022/07/20 10:37:29;;;;;;;5.03;2.90;;;;;;;46.16;18.02;98687.44;4984916;28;20037;-57
2022/07/20 10:39:58;;;;;;;8.35;2.85;;;;;;;45.68;18.35;98689.03;5003461;28;20054;-57
2022/07/20 10:42:28;;;;;;;4.78;2.70;;;;;;;46.23;18.54;98695.84;4984832;28;20057;-57
2022/07/20 10:44:54;;;;;;;4.75;2.88;;;;;;;47.26;16.98;98690.63;4986447;28;20022;-57
2022/07/20 10:47:43;;;;;;;7.50;2.73;;;;;;;47.58;17.11;98696.22;4982937;28;20381;-57
2022/07/20 10:50:11;;;;;;;9.30;2.90;;;;;;;46.34;17.81;98693.53;4983539;28;20064;-57
2022/07/20 10:52:36;;;;;;;6.60;2.63;;;;;;;47.37;17.56;98706.25;4981645;28;20133;-57
2022/07/20 10:55:04;;;;;;;7.22;2.85;;;;;;;47.31;17.08;98693.72;4981706;28;20137;-57
2022/07/20 10:57:31;;;;;;;3.92;2.78;;;;;;;47.45;16.94;98686.78;4982895;28;20026;-57
2022/07/20 11:00:01;;;;;;;;;;;;;;;46.28;17.48;98691.66;4984872;28;20433;-57
2022/07/20 11:02:26;;;;;;;5.30;2.78;;;;;;;47.25;17.38;98686.19;4983889;28;19926;-57
2022/07/20 11:04:51;;;;;;;4.25;2.58;;;;;;;46.76;17.93;98690.00;4981794;28;20470;-57
2022/07/20 11:07:34;;;;;;;4.57;3.05;;;;;;;47.70;17.17;98682.34;4981572;28;20088;-57
2022/07/20 11:10:01;;;;;;;5.50;2.88;;;;;;;48.39;16.35;98691.09;4988902;28;20138;-57
2022/07/20 11:12:30;;;;;;;5.75;3.20;;;;;;;47.23;16.80;98689.47;4981915;28;20019;-57
2022/07/20 11:14:56;;;;;;;7.13;2.80;;;;;;;47.41;16.93;98691.81;4982241;28;20674;-57
2022/07/20 11:17:22;;;;;;;8.00;2.90;;;;;;;46.98;17.14;98681.59;4981578;28;20764;-58
2022/07/20 11:19:48;;;;;;;4.38;3.03;;;;;;;46.45;17.49;98681.81;4979676;28;20073;-57
2022/07/20 11:22:14;;;;;;;6.65;3.00;;;;;;;44.76;18.35;98687.66;4977603;28;20119;-57
2022/07/20 11:24:39;;;;;;;7.10;2.92;;;;;;;46.18;17.25;98682.09;4986719;28;20734;-57
2022/07/20 11:27:16;;;;;;;5.32;3.22;;;;;;;44.98;18.31;98679.47;4984171;28;20026;-57
2022/07/20 11:29:51;;;;;;;5.40;3.08;;;;;;;46.22;17.63;98679.97;4987854;28;20045;-57
2022/07/20 11:32:17;;;;;;;4.00;2.70;;;;;;;47.39;17.44;98680.00;4983801;28;20030;-57
2022/07/20 11:34:53;;;;;;;5.80;3.00;;;;;;;47.80;16.73;98679.16;4987968;28;20493;-57